createdAt,value
2018-11-20T00:00:12.530Z,23.30
2018-11-20T00:03:01.380Z,24.90
2018-11-20T00:05:54.042Z,26.80
2018-11-20T00:08:53.133Z,25.57
2018-11-20T00:11:42.928Z,25.93
2018-11-20T00:14:41.524Z,26.10
2018-11-20T00:17:37.021Z,25.07
2018-11-20T00:20:45.810Z,24.00
2018-11-20T00:23:41.380Z,22.73
2018-11-20T00:26:29.631Z,24.03
2018-11-20T00:29:17.994Z,26.17
2018-11-20T00:32:25.733Z,23.80
2018-11-20T00:35:24.946Z,21.80
2018-11-20T00:38:07.568Z,24.47
2018-11-20T00:40:53.050Z,24.20
2018-11-20T00:43:40.928Z,24.87
2018-11-20T00:46:51.362Z,22.30
2018-11-20T00:49:40.645Z,22.60
2018-11-20T00:52:41.937Z,24.67
2018-11-20T00:56:18.359Z,21.07
2018-11-20T00:59:08.429Z,21.90
2018-11-20T01:02:13.538Z,24.57
2018-11-20T01:05:01.988Z,23.90
2018-11-20T01:07:55.762Z,22.40
2018-11-20T01:10:43.440Z,25.37
2018-11-20T01:13:41.976Z,22.70
2018-11-20T01:16:30.243Z,24.97
2018-11-20T01:19:37.925Z,23.40
2018-11-20T01:22:46.356Z,25.20
2018-11-20T01:25:54.716Z,23.97
2018-11-20T01:28:39.107Z,22.90
2018-11-20T01:31:31.546Z,24.03
2018-11-20T01:34:23.995Z,25.10
2018-11-20T01:37:16.663Z,22.63
2018-11-20T01:40:00.166Z,23.87
2018-11-20T01:42:49.253Z,23.60
2018-11-20T01:45:30.777Z,22.20
2018-11-20T01:48:35.754Z,23.70
2018-11-20T01:51:24.154Z,24.10
2018-11-20T01:54:04.725Z,22.80
2018-11-20T01:57:10.114Z,23.53
2018-11-20T02:00:02.766Z,22.10
2018-11-20T02:02:52.408Z,23.50
2018-11-20T02:05:51.756Z,24.13
2018-11-20T02:08:52.069Z,24.57
2018-11-20T02:11:56.942Z,24.13
2018-11-20T02:14:45.142Z,23.67
2018-11-20T02:17:39.796Z,23.07
2018-11-20T02:20:47.989Z,23.17
2018-11-20T02:23:36.405Z,23.23
2018-11-20T02:26:35.540Z,23.77
2018-11-20T02:29:24.165Z,20.93
2018-11-20T02:32:14.704Z,24.80
2018-11-20T02:35:16.404Z,21.27
2018-11-20T02:38:05.008Z,25.13
2018-11-20T02:40:57.610Z,24.13
2018-11-20T02:43:55.881Z,23.50
2018-11-20T02:46:48.629Z,24.57
2018-11-20T02:49:53.376Z,23.50
2018-11-20T02:52:39.723Z,23.83
2018-11-20T02:55:35.381Z,25.73
2018-11-20T02:58:25.687Z,24.33
2018-11-20T03:01:13.834Z,24.80
2018-11-20T03:04:03.599Z,22.40
2018-11-20T03:06:53.017Z,21.87
2018-11-20T03:09:41.379Z,22.00
2018-11-20T03:12:29.239Z,25.90
2018-11-20T03:15:22.265Z,23.50
2018-11-20T03:18:10.548Z,24.50
2018-11-20T03:21:04.999Z,23.53
2018-11-20T03:24:06.906Z,23.83
2018-11-20T03:26:53.114Z,24.20
2018-11-20T03:30:41.349Z,23.30
2018-11-20T03:33:46.096Z,21.67
2018-11-20T03:36:35.464Z,21.27
2018-11-20T03:39:38.864Z,21.40
2018-11-20T03:42:28.226Z,21.17
2018-11-20T03:45:15.278Z,22.37
2018-11-20T03:48:03.160Z,24.13
2018-11-20T03:51:05.868Z,23.40
2018-11-20T03:54:01.672Z,23.33
2018-11-20T03:56:47.341Z,24.00
2018-11-20T03:59:40.209Z,24.90
2018-11-20T04:02:48.318Z,24.23
2018-11-20T04:05:35.528Z,20.90
2018-11-20T04:08:27.877Z,24.00
2018-11-20T04:11:17.667Z,24.53
2018-11-20T04:14:26.692Z,23.80
2018-11-20T04:17:17.769Z,21.87
2018-11-20T04:20:07.511Z,23.63
2018-11-20T04:23:00.336Z,22.17
2018-11-20T04:26:02.192Z,22.50
2018-11-20T04:29:04.057Z,20.90
2018-11-20T04:32:10.011Z,23.80
2018-11-20T04:35:05.630Z,21.67
2018-11-20T04:37:53.804Z,22.00
2018-11-20T04:40:42.762Z,24.20
2018-11-20T04:43:42.652Z,22.90
2018-11-20T04:46:38.637Z,23.13
2018-11-20T04:49:24.869Z,21.47
2018-11-20T04:52:13.466Z,19.57
2018-11-20T04:55:02.388Z,21.13
2018-11-20T04:57:50.698Z,23.40
2018-11-20T05:00:43.192Z,22.70
2018-11-20T05:03:38.272Z,22.10
2018-11-20T05:06:34.103Z,22.07
2018-11-20T05:09:31.731Z,23.40
2018-11-20T05:12:24.025Z,21.40
2018-11-20T05:15:12.971Z,23.03
2018-11-20T05:18:09.315Z,25.27
2018-11-20T05:21:04.907Z,23.50
2018-11-20T05:24:03.705Z,22.43
2018-11-20T05:27:11.516Z,23.20
2018-11-20T05:30:01.178Z,21.67
2018-11-20T05:32:56.798Z,22.97
2018-11-20T05:35:49.444Z,25.70
2018-11-20T05:38:39.352Z,20.70
2018-11-20T05:41:25.234Z,21.80
2018-11-20T05:44:30.696Z,22.53
2018-11-20T05:47:35.422Z,22.03
2018-11-20T05:50:35.241Z,22.73
2018-11-20T05:53:23.361Z,23.03
2018-11-20T05:56:15.908Z,22.03
2018-11-20T05:59:05.191Z,23.70
2018-11-20T06:01:55.710Z,23.83
2018-11-20T06:04:39.906Z,22.27
2018-11-20T06:07:33.585Z,22.30
2018-11-20T06:10:21.632Z,21.97
2018-11-20T06:13:09.963Z,24.27
2018-11-20T06:15:58.546Z,21.10
2018-11-20T06:18:47.239Z,22.90
2018-11-20T06:21:46.605Z,21.40
2018-11-20T06:24:35.016Z,22.63
2018-11-20T06:27:33.703Z,23.70
2018-11-20T06:30:26.064Z,22.43
2018-11-20T06:33:16.139Z,21.20
2018-11-20T06:36:04.427Z,23.37
2018-11-20T06:38:59.892Z,23.10
2018-11-20T06:41:48.345Z,22.60
2018-11-20T06:44:35.672Z,23.50
2018-11-20T06:47:30.978Z,22.60
2018-11-20T06:50:19.115Z,23.10
2018-11-20T06:53:15.000Z,24.07
2018-11-20T06:56:13.027Z,21.50
2018-11-20T06:59:05.625Z,22.20
2018-11-20T07:02:12.130Z,22.77
2018-11-20T07:05:00.274Z,21.53
2018-11-20T07:07:56.430Z,23.73
2018-11-20T07:10:57.969Z,20.67
2018-11-20T07:13:50.070Z,22.23
2018-11-20T07:17:03.394Z,21.70
2018-11-20T07:19:58.996Z,22.40
2018-11-20T07:22:49.125Z,21.90
2018-11-20T07:25:41.592Z,22.53
2018-11-20T07:28:30.235Z,23.13
2018-11-20T07:31:18.868Z,21.80
2018-11-20T07:34:06.020Z,23.70
2018-11-20T07:36:58.752Z,22.77
2018-11-20T07:39:44.520Z,22.67
2018-11-20T07:42:32.460Z,22.23
2018-11-20T07:45:41.353Z,20.83
2018-11-20T07:48:49.502Z,23.30
2018-11-20T07:51:37.955Z,22.97
2018-11-20T07:54:16.679Z,23.57
2018-11-20T07:57:04.920Z,24.50
2018-11-20T07:59:49.862Z,25.60
2018-11-20T08:02:42.427Z,24.20
2018-11-20T08:05:25.296Z,23.57
2018-11-20T08:08:11.480Z,24.73
2018-11-20T08:11:00.755Z,24.60
2018-11-20T08:13:51.148Z,25.23
2018-11-20T08:16:47.189Z,24.17
2018-11-20T08:19:39.623Z,23.47
2018-11-20T08:22:22.972Z,23.77
2018-11-20T08:25:19.013Z,23.60
2018-11-20T08:28:08.789Z,22.30
2018-11-20T08:31:00.680Z,21.00
2018-11-20T08:33:53.808Z,22.87
2018-11-20T08:36:45.865Z,21.67
2018-11-20T08:39:34.783Z,21.13
2018-11-20T08:42:23.046Z,21.17
2018-11-20T08:45:24.710Z,22.47
2018-11-20T08:48:14.381Z,24.10
2018-11-20T08:51:13.010Z,22.67
2018-11-20T08:54:05.397Z,23.70
2018-11-20T08:56:55.191Z,24.27
2018-11-20T08:59:45.426Z,24.17
2018-11-20T09:02:35.687Z,23.27
2018-11-20T09:05:28.397Z,23.20
2018-11-20T09:08:16.353Z,21.27
2018-11-20T09:11:15.520Z,20.57
2018-11-20T09:14:04.650Z,23.30
2018-11-20T09:16:54.090Z,23.67
2018-11-20T09:19:43.832Z,23.00
2018-11-20T09:22:48.790Z,24.03
2018-11-20T09:25:50.973Z,22.90
2018-11-20T09:28:58.664Z,21.67
2018-11-20T09:31:56.578Z,20.60
2018-11-20T09:34:46.270Z,20.10
2018-11-20T09:37:35.524Z,20.03
2018-11-20T09:41:12.244Z,20.90
2018-11-20T09:44:16.617Z,20.43
2018-11-20T09:47:05.618Z,22.50
2018-11-20T09:49:56.848Z,21.50
2018-11-20T09:52:44.855Z,22.93
2018-11-20T09:55:32.901Z,22.43
2018-11-20T09:58:25.790Z,21.50
2018-11-20T10:01:14.554Z,20.70
2018-11-20T10:04:05.387Z,21.97
2018-11-20T10:06:57.517Z,26.77
2018-11-20T10:09:47.553Z,20.93
2018-11-20T10:12:40.165Z,21.83
2018-11-20T10:15:48.326Z,21.27
2018-11-20T10:18:41.518Z,22.00
2018-11-20T10:21:46.525Z,24.50
2018-11-20T10:24:35.052Z,21.83
2018-11-20T10:27:28.360Z,22.50
2018-11-20T10:30:16.789Z,22.77
2018-11-20T10:33:05.458Z,22.17
2018-11-20T10:35:56.899Z,22.40
2018-11-20T10:38:44.905Z,20.93
2018-11-20T10:41:26.897Z,21.20
2018-11-20T10:44:19.019Z,21.80
2018-11-20T10:47:08.392Z,21.30
2018-11-20T10:49:56.761Z,20.33
2018-11-20T10:52:49.383Z,19.80
2018-11-20T10:55:37.743Z,21.33
2018-11-20T10:58:36.844Z,21.23
2018-11-20T11:01:42.388Z,21.87
2018-11-20T11:04:38.511Z,24.37
2018-11-20T11:07:18.700Z,22.10
2018-11-20T11:10:07.700Z,20.97
2018-11-20T11:13:07.131Z,21.33
2018-11-20T11:16:14.548Z,22.27
2018-11-20T11:19:07.406Z,23.67
2018-11-20T11:21:59.740Z,25.03
2018-11-20T11:24:55.651Z,25.60
2018-11-20T11:27:43.995Z,24.10
2018-11-20T11:30:23.333Z,23.90
2018-11-20T11:33:15.561Z,24.73
2018-11-20T11:36:20.693Z,24.10
2018-11-20T11:39:22.061Z,26.07
2018-11-20T11:42:11.666Z,26.07
2018-11-20T11:45:00.487Z,26.37
2018-11-20T11:47:48.632Z,24.20
2018-11-20T11:50:56.741Z,28.90
2018-11-20T11:53:48.885Z,26.20
2018-11-20T11:56:47.821Z,25.40
2018-11-20T11:59:47.173Z,27.77
2018-11-20T12:05:27.035Z,24.27
2018-11-20T12:08:14.644Z,24.40
2018-11-20T12:11:07.171Z,26.13
2018-11-20T12:13:55.744Z,24.97
2018-11-20T12:16:40.894Z,25.73
2018-11-20T12:19:29.895Z,29.33
2018-11-20T12:22:22.610Z,30.60
2018-11-20T12:25:11.622Z,28.30
2018-11-20T12:28:00.085Z,26.50
2018-11-20T12:30:59.092Z,28.90
2018-11-20T12:34:03.880Z,27.73
2018-11-20T12:36:51.946Z,25.50
2018-11-20T12:39:41.839Z,25.70
2018-11-20T12:42:30.560Z,26.20
2018-11-20T12:45:29.704Z,28.80
2018-11-20T12:48:29.506Z,25.67
2018-11-20T12:51:27.366Z,25.67
2018-11-20T12:54:15.687Z,28.97
2018-11-20T12:57:03.746Z,26.20
2018-11-20T12:59:51.878Z,27.97
2018-11-20T13:02:40.180Z,31.20
2018-11-20T13:05:29.933Z,29.50
2018-11-20T13:08:20.814Z,32.67
2018-11-20T13:11:07.421Z,30.00
2018-11-20T13:14:00.762Z,29.30
2018-11-20T13:17:00.080Z,31.47
2018-11-20T13:19:48.763Z,29.03
2018-11-20T13:22:49.503Z,29.10
2018-11-20T13:25:39.810Z,30.73
2018-11-20T13:28:41.234Z,28.67
2018-11-20T13:31:30.475Z,29.10
2018-11-20T13:34:21.102Z,28.00
2018-11-20T13:37:09.918Z,30.90
2018-11-20T13:39:57.581Z,28.83
2018-11-20T13:42:53.075Z,32.53
2018-11-20T13:45:52.800Z,28.27
2018-11-20T13:48:45.298Z,27.87
2018-11-20T13:51:36.501Z,29.47
2018-11-20T13:54:26.762Z,29.20
2018-11-20T13:57:15.411Z,26.63
2018-11-20T14:00:03.641Z,26.60
2018-11-20T14:02:59.680Z,27.83
2018-11-20T14:05:56.359Z,27.17
2018-11-20T14:08:48.648Z,27.07
2018-11-20T14:11:38.405Z,25.53
2018-11-20T14:14:29.186Z,28.30
2018-11-20T14:17:29.185Z,27.37
2018-11-20T14:20:20.480Z,26.27
2018-11-20T14:23:08.355Z,23.83
2018-11-20T14:26:07.533Z,26.10
2018-11-20T14:28:56.488Z,26.03
2018-11-20T14:31:55.591Z,28.07
2018-11-20T14:34:48.304Z,27.50
2018-11-20T14:37:56.128Z,28.57
2018-11-20T14:40:44.987Z,27.73
2018-11-20T14:43:51.087Z,28.63
2018-11-20T14:46:49.677Z,30.27
2018-11-20T14:49:41.110Z,28.77
2018-11-20T14:52:26.601Z,27.30
2018-11-20T14:55:15.995Z,28.50
2018-11-20T14:58:17.654Z,25.47
2018-11-20T15:01:06.331Z,24.47
2018-11-20T15:04:05.094Z,25.77
2018-11-20T15:07:14.194Z,27.50
2018-11-20T15:09:59.140Z,25.73
2018-11-20T15:12:44.338Z,26.17
2018-11-20T15:15:37.921Z,25.90
2018-11-20T15:18:30.585Z,21.67
2018-11-20T15:21:29.282Z,23.53
2018-11-20T15:24:17.198Z,23.63
2018-11-20T15:27:06.472Z,24.03
2018-11-20T15:29:58.850Z,23.53
2018-11-20T15:33:07.425Z,22.37
2018-11-20T15:35:55.365Z,23.50
2018-11-20T15:39:03.281Z,22.30
2018-11-20T15:41:53.489Z,21.87
2018-11-20T15:44:42.153Z,21.70
2018-11-20T15:47:30.347Z,23.47
2018-11-20T15:50:17.909Z,22.70
2018-11-20T15:52:58.833Z,20.80
2018-11-20T15:55:47.520Z,19.60
2018-11-20T15:58:40.237Z,23.93
2018-11-20T16:01:28.615Z,25.10
2018-11-20T16:04:14.479Z,22.37
2018-11-20T16:07:15.758Z,24.73
2018-11-20T16:10:05.677Z,24.07
2018-11-20T16:13:10.565Z,26.37
2018-11-20T16:16:19.040Z,23.20
2018-11-20T16:19:08.863Z,21.00
2018-11-20T16:21:59.153Z,23.20
2018-11-20T16:24:42.435Z,23.80
2018-11-20T16:27:35.436Z,22.53
2018-11-20T16:30:25.319Z,22.80
2018-11-20T16:33:17.809Z,23.43
2018-11-20T16:36:06.226Z,26.90
2018-11-20T16:38:56.099Z,28.47
2018-11-20T16:42:02.530Z,26.93
2018-11-20T16:44:51.121Z,25.00
2018-11-20T16:47:34.352Z,28.77
2018-11-20T16:50:22.440Z,26.67
2018-11-20T16:53:10.645Z,26.00
2018-11-20T16:56:19.473Z,25.83
2018-11-20T16:59:09.545Z,25.37
2018-11-20T17:02:18.929Z,24.63
2018-11-20T17:05:17.566Z,23.20
2018-11-20T17:08:22.485Z,26.37
2018-11-20T17:11:27.270Z,23.90
2018-11-20T17:14:19.931Z,25.03
2018-11-20T17:17:02.389Z,25.97
2018-11-20T17:19:54.447Z,30.03
2018-11-20T17:22:42.911Z,28.97
2018-11-20T17:25:35.307Z,26.50
2018-11-20T17:28:24.000Z,27.33
2018-11-20T17:31:12.313Z,26.77
2018-11-20T17:34:00.184Z,30.00
2018-11-20T17:37:06.215Z,24.90
2018-11-20T17:39:55.159Z,25.60
2018-11-20T17:42:48.238Z,25.30
2018-11-20T17:45:42.040Z,26.80
2018-11-20T17:48:34.514Z,26.13
2018-11-20T17:51:24.567Z,27.17
2018-11-20T17:54:12.512Z,27.20
2018-11-20T17:57:06.331Z,24.60
2018-11-20T17:59:49.955Z,27.87
2018-11-20T18:02:40.509Z,27.77
2018-11-20T18:05:30.364Z,26.40
2018-11-20T18:08:19.159Z,28.00
2018-11-20T18:11:15.239Z,24.33
2018-11-20T18:14:09.681Z,26.40
2018-11-20T18:16:56.031Z,27.03
2018-11-20T18:19:46.494Z,24.90
2018-11-20T18:22:34.652Z,26.60
2018-11-20T18:25:23.878Z,26.13
2018-11-20T18:28:18.042Z,24.53
2018-11-20T18:31:26.634Z,26.27
2018-11-20T18:34:19.011Z,26.30
2018-11-20T18:37:22.823Z,25.77
2018-11-20T18:40:12.091Z,27.10
2018-11-20T18:43:02.488Z,26.77
2018-11-20T18:45:52.590Z,27.50
2018-11-20T18:48:44.359Z,24.90
2018-11-20T18:51:27.405Z,28.50
2018-11-20T18:54:24.633Z,26.57
2018-11-20T18:57:22.135Z,27.53
2018-11-20T19:00:18.700Z,31.57
2018-11-20T19:03:11.840Z,34.90
2018-11-20T19:06:05.439Z,37.97
2018-11-20T19:08:55.572Z,34.20
2018-11-20T19:11:49.229Z,28.33
2018-11-20T19:14:39.862Z,34.57
2018-11-20T19:17:30.254Z,29.50
2018-11-20T19:20:18.969Z,32.10
2018-11-20T19:23:08.582Z,32.30
2018-11-20T19:25:57.223Z,29.30
2018-11-20T19:28:53.790Z,33.20
2018-11-20T19:31:41.623Z,35.00
2018-11-20T19:34:30.432Z,34.17
2018-11-20T19:37:26.364Z,34.87
2018-11-20T19:40:28.895Z,33.07
2018-11-20T19:43:14.945Z,37.10
2018-11-20T19:46:05.031Z,34.87
2018-11-20T19:48:59.351Z,36.23
2018-11-20T19:51:43.763Z,37.87
2018-11-20T19:54:33.057Z,35.33
2018-11-20T19:57:31.751Z,35.77
2018-11-20T20:00:33.589Z,29.67
2018-11-20T20:03:27.509Z,31.53
2018-11-20T20:06:17.029Z,29.60
2018-11-20T20:09:02.525Z,33.57
2018-11-20T20:11:55.455Z,39.27
2018-11-20T20:14:45.075Z,43.97
2018-11-20T20:17:34.038Z,33.97
2018-11-20T20:20:27.759Z,31.00
2018-11-20T20:23:27.067Z,32.97
2018-11-20T20:26:27.406Z,30.30
2018-11-20T20:29:28.555Z,31.90
2018-11-20T20:32:11.741Z,30.30
2018-11-20T20:34:54.785Z,30.32
2018-11-20T20:37:50.008Z,30.67
2018-11-20T20:41:00.162Z,26.03
2018-11-20T20:44:02.552Z,40.83
2018-11-20T20:47:03.783Z,33.87
2018-11-20T20:49:42.838Z,34.17
2018-11-20T20:52:30.115Z,32.67
2018-11-20T20:55:18.597Z,34.53
2018-11-20T20:58:13.226Z,30.60
2018-11-20T21:01:09.342Z,29.77
2018-11-20T21:04:08.332Z,30.17
2018-11-20T21:08:05.784Z,34.23
2018-11-20T21:11:14.596Z,33.37
2018-11-20T21:14:08.269Z,71.30
2018-11-20T21:16:57.162Z,32.40
2018-11-20T21:19:44.737Z,32.47
2018-11-20T21:22:32.444Z,33.80
2018-11-20T21:25:25.894Z,38.00
2018-11-20T21:28:12.448Z,37.30
2018-11-20T21:31:03.967Z,44.80
2018-11-20T21:33:48.145Z,38.20
2018-11-20T21:36:36.786Z,37.67
2018-11-20T21:39:34.788Z,37.40
2018-11-20T21:42:21.993Z,38.10
2018-11-20T21:45:17.068Z,34.83
2018-11-20T21:48:04.338Z,34.23
2018-11-20T21:50:59.016Z,33.43
2018-11-20T21:54:03.099Z,32.20
2018-11-20T21:57:09.872Z,32.37
2018-11-20T22:00:23.671Z,33.53
2018-11-20T22:03:18.394Z,33.13
2018-11-20T22:06:06.356Z,33.97
2018-11-20T22:09:04.227Z,34.67
2018-11-20T22:11:52.073Z,32.77
2018-11-20T22:14:40.620Z,33.30
2018-11-20T22:17:44.740Z,31.83
2018-11-20T22:20:32.454Z,32.63
2018-11-20T22:23:36.666Z,35.50
2018-11-20T22:26:22.566Z,33.50
2018-11-20T22:29:14.244Z,34.80
2018-11-20T22:32:06.113Z,36.50
2018-11-20T22:34:53.339Z,31.70
2018-11-20T22:37:37.994Z,33.37
2018-11-20T22:40:45.912Z,32.07
2018-11-20T22:43:24.368Z,35.20
2018-11-20T22:46:12.662Z,36.63
2018-11-20T22:49:01.728Z,32.43
2018-11-20T22:51:56.838Z,35.70
2018-11-20T22:54:44.153Z,34.53
2018-11-20T22:57:35.428Z,34.93
2018-11-20T23:00:30.801Z,34.60
2018-11-20T23:03:18.112Z,33.97
2018-11-20T23:06:19.075Z,34.47
2018-11-20T23:08:48.683Z,36.67
2018-11-20T23:11:18.480Z,36.63
2018-11-20T23:13:48.221Z,35.60
2018-11-20T23:16:18.779Z,35.80
2018-11-20T23:18:48.841Z,35.27
2018-11-20T23:21:19.360Z,33.20
2018-11-20T23:23:49.783Z,34.87
2018-11-20T23:26:19.989Z,34.70
2018-11-20T23:28:49.577Z,35.70
2018-11-20T23:31:23.602Z,37.80
2018-11-20T23:33:53.467Z,34.13
2018-11-20T23:36:23.498Z,35.87
2018-11-20T23:38:53.561Z,35.80
2018-11-20T23:41:23.164Z,35.40
2018-11-20T23:43:53.602Z,36.00
2018-11-20T23:46:24.041Z,35.67
2018-11-20T23:48:54.518Z,38.30
2018-11-20T23:51:25.626Z,33.90
2018-11-20T23:53:55.598Z,34.37
2018-11-20T23:56:25.566Z,32.47
2018-11-20T23:58:55.645Z,36.07
